Time;durP1;ratioP1;P1;durP2;ratioP2;P2;SDS_P1;SDS_P2;PMS_P1;PMS_P2;Temp;Humidity;BMP_temperature;BMP_pressure;BME280_temperature;BME280_humidity;BME280_pressure;Samples;Min_cycle;Max_cycle;Signal;HPM_P1;HPM_P2
2022/08/28 00:00:47;;;;;;;;;;;18.90;99.90;;;;;;5013941;28;19976;-72
2022/08/28 00:03:19;;;;;;;;;;;18.90;99.90;;;;;;5012471;28;19922;-73
2022/08/28 00:05:50;;;;;;;;;;;18.90;99.90;;;;;;5022063;28;19921;-73
2022/08/28 00:08:22;;;;;;;;;;;19.00;99.90;;;;;;5022773;28;19979;-73
2022/08/28 00:10:54;;;;;;;;;;;19.00;99.90;;;;;;5024038;28;20657;-73
2022/08/28 00:13:25;;;;;;;;;;;19.00;99.90;;;;;;5022936;28;20368;-73
2022/08/28 00:15:59;;;;;;;;;;;19.00;99.90;;;;;;5004385;28;19928;-73
2022/08/28 00:18:31;;;;;;;;;;;19.00;99.90;;;;;;5024425;28;20384;-74
2022/08/28 00:21:03;;;;;;;;;;;19.00;99.90;;;;;;5009390;28;19947;-73
2022/08/28 00:23:35;;;;;;;;;;;19.00;99.90;;;;;;5022469;28;19921;-74
2022/08/28 00:26:06;;;;;;;;;;;18.90;99.90;;;;;;5004029;28;19922;-73
2022/08/28 00:28:38;;;;;;;;;;;18.80;99.90;;;;;;5020066;28;19968;-73
2022/08/28 00:31:12;;;;;;;;;;;18.80;99.90;;;;;;5004857;28;19925;-72
2022/08/28 00:33:43;;;;;;;;;;;18.70;99.90;;;;;;5022234;28;19925;-74
2022/08/28 00:36:15;;;;;;;;;;;18.60;99.90;;;;;;5036343;28;19928;-73
2022/08/28 00:38:47;;;;;;;;;;;18.60;99.90;;;;;;5021890;28;19921;-73
2022/08/28 00:41:19;;;;;;;;;;;18.60;99.90;;;;;;5013805;28;19924;-73
2022/08/28 00:44:03;;;;;;;;;;;18.60;99.90;;;;;;5024017;28;20031;-74
2022/08/28 00:46:36;;;;;;;;;;;18.50;99.90;;;;;;5038476;28;19921;-74
2022/08/28 00:49:08;;;;;;;;;;;18.50;99.90;;;;;;5022986;28;19959;-74
2022/08/28 00:54:32;;;;;;;;;;;18.40;99.90;;;;;;5023506;28;19928;-73
2022/08/28 00:57:07;;;;;;;;;;;18.30;99.90;;;;;;5011085;28;19974;-73
2022/08/28 00:59:39;;;;;;;;;;;18.30;99.90;;;;;;5020530;28;19932;-73
2022/08/28 01:02:10;;;;;;;;;;;18.20;99.90;;;;;;5019781;28;19921;-73
2022/08/28 01:04:42;;;;;;;;;;;18.20;99.90;;;;;;5013146;28;19928;-74
2022/08/28 01:07:14;;;;;;;;;;;18.10;99.90;;;;;;5037341;28;20461;-74
2022/08/28 01:09:47;;;;;;;;;;;18.10;99.90;;;;;;5012548;28;19964;-74
2022/08/28 01:12:21;;;;;;;;;;;18.10;99.90;;;;;;5012100;28;20007;-74
2022/08/28 01:14:57;;;;;;;;;;;18.10;99.90;;;;;;5020901;28;20030;-74
2022/08/28 01:17:31;;;;;;;;;;;18.10;99.90;;;;;;5020285;28;19947;-73
2022/08/28 01:20:11;;;;;;;;;;;18.10;99.90;;;;;;5018367;28;19925;-73
2022/08/28 01:23:01;;;;;;;;;;;18.10;99.90;;;;;;5027705;28;20401;-74
2022/08/28 01:25:34;;;;;;;;;;;18.20;99.90;;;;;;5021706;28;19925;-73
2022/08/28 01:28:09;;;;;;;;;;;18.20;99.90;;;;;;5022723;28;19921;-74
2022/08/28 01:30:43;;;;;;;;;;;18.20;99.90;;;;;;5020273;28;19928;-74
2022/08/28 01:33:14;;;;;;;;;;;18.20;99.90;;;;;;5010702;28;19921;-74
2022/08/28 01:35:46;;;;;;;;;;;18.20;99.90;;;;;;5020968;28;20411;-75
2022/08/28 01:38:18;;;;;;;;;;;18.20;99.90;;;;;;5013952;28;19921;-74
2022/08/28 01:40:53;;;;;;;;;;;18.20;99.90;;;;;;5036846;28;19973;-73
2022/08/28 01:43:25;;;;;;;;;;;18.30;99.90;;;;;;5022913;28;19935;-73
2022/08/28 01:46:00;;;;;;;;;;;18.30;99.90;;;;;;5020409;28;20025;-75
2022/08/28 01:48:34;;;;;;;;;;;18.30;99.90;;;;;;5020935;28;19927;-74
2022/08/28 01:51:07;;;;;;;;;;;18.40;99.90;;;;;;5022137;28;19929;-74
2022/08/28 01:53:40;;;;;;;;;;;18.40;99.90;;;;;;5012982;28;19925;-74
2022/08/28 01:56:13;;;;;;;;;;;18.40;99.90;;;;;;4999859;28;20020;-73
2022/08/28 01:58:46;;;;;;;;;;;18.50;99.90;;;;;;5010018;28;19931;-73
2022/08/28 02:01:19;;;;;;;;;;;18.50;99.90;;;;;;5022267;28;19931;-75
2022/08/28 02:03:54;;;;;;;;;;;18.60;99.90;;;;;;5022154;28;19921;-73
2022/08/28 02:06:26;;;;;;;;;;;18.60;99.90;;;;;;5006435;28;19925;-73
2022/08/28 02:08:58;;;;;;;;;;;18.60;99.90;;;;;;5020358;28;19964;-73
2022/08/28 02:11:31;;;;;;;;;;;18.60;99.90;;;;;;5019219;28;19931;-73
2022/08/28 02:14:03;;;;;;;;;;;18.50;99.90;;;;;;5019316;28;19928;-73
2022/08/28 02:16:34;;;;;;;;;;;18.50;99.90;;;;;;5020873;28;19929;-75
2022/08/28 02:19:02;;;;;;;;;;;18.50;99.90;;;;;;5008557;28;19983;-73
2022/08/28 02:21:34;;;;;;;;;;;18.50;99.90;;;;;;5037168;28;19921;-74
2022/08/28 02:24:06;;;;;;;;;;;18.50;99.90;;;;;;5007554;28;19921;-74
2022/08/28 02:26:37;;;;;;;;;;;18.50;99.90;;;;;;5009356;28;19921;-73
2022/08/28 02:29:09;;;;;;;;;;;18.50;99.90;;;;;;5018584;28;19921;-73
2022/08/28 02:31:41;;;;;;;;;;;18.50;99.90;;;;;;5004852;28;19924;-74
2022/08/28 02:34:13;;;;;;;;;;;18.50;99.90;;;;;;5013975;28;19929;-74
2022/08/28 02:36:44;;;;;;;;;;;18.50;99.90;;;;;;5007212;28;20350;-73
2022/08/28 02:39:16;;;;;;;;;;;18.60;99.90;;;;;;5016718;28;19925;-74
2022/08/28 02:41:47;;;;;;;;;;;18.60;99.90;;;;;;5028385;28;19925;-74
2022/08/28 02:44:19;;;;;;;;;;;18.60;99.90;;;;;;5013153;28;19929;-73
2022/08/28 02:46:51;;;;;;;;;;;18.60;99.90;;;;;;5022893;28;19921;-74
2022/08/28 02:49:23;;;;;;;;;;;18.60;99.90;;;;;;5023498;28;20406;-73
2022/08/28 02:51:55;;;;;;;;;;;18.50;99.90;;;;;;5023562;28;19929;-73
2022/08/28 02:54:27;;;;;;;;;;;18.50;99.90;;;;;;5017133;28;19928;-73
2022/08/28 02:56:58;;;;;;;;;;;18.50;99.90;;;;;;5022560;28;19921;-74
2022/08/28 02:59:30;;;;;;;;;;;18.40;99.90;;;;;;5024724;28;19921;-73
2022/08/28 03:02:03;;;;;;;;;;;18.50;99.90;;;;;;5022734;28;20410;-73
2022/08/28 03:04:36;;;;;;;;;;;18.50;99.90;;;;;;4996495;28;19925;-74
2022/08/28 03:07:08;;;;;;;;;;;18.50;99.90;;;;;;5004521;28;20015;-74
2022/08/28 03:09:42;;;;;;;;;;;18.50;99.90;;;;;;5022722;28;19925;-74
2022/08/28 03:12:15;;;;;;;;;;;18.50;99.90;;;;;;5006291;28;19932;-74
2022/08/28 03:14:47;;;;;;;;;;;18.50;99.90;;;;;;5022383;28;19922;-73
2022/08/28 03:17:20;;;;;;;;;;;18.60;99.90;;;;;;5013772;28;20031;-73
2022/08/28 03:19:52;;;;;;;;;;;18.50;99.90;;;;;;5026043;28;19921;-74
2022/08/28 03:25:16;;;;;;;;;;;18.50;99.90;;;;;;5025194;28;20020;-73
2022/08/28 03:27:42;;;;;;;;;;;18.40;99.90;;;;;;5015978;28;19928;-73
2022/08/28 03:30:14;;;;;;;;;;;18.40;99.90;;;;;;5022579;28;19927;-73
2022/08/28 03:32:46;;;;;;;;;;;18.40;99.90;;;;;;5014139;28;19921;-73
2022/08/28 03:35:18;;;;;;;;;;;18.40;99.90;;;;;;5013800;28;19921;-74
2022/08/28 03:37:50;;;;;;;;;;;18.40;99.90;;;;;;5005329;28;20419;-73
2022/08/28 03:40:22;;;;;;;;;;;18.40;99.90;;;;;;4988640;28;19922;-74
2022/08/28 03:42:53;;;;;;;;;;;18.40;99.90;;;;;;5024069;28;19921;-73
2022/08/28 03:45:25;;;;;;;;;;;18.40;99.90;;;;;;5024723;28;20295;-74
2022/08/28 03:47:57;;;;;;;;;;;18.30;99.90;;;;;;5025813;28;19921;-74
2022/08/28 03:50:28;;;;;;;;;;;18.40;99.90;;;;;;5012723;28;19957;-74
2022/08/28 03:53:00;;;;;;;;;;;18.40;99.90;;;;;;5023228;28;19928;-72
2022/08/28 03:55:32;;;;;;;;;;;18.40;99.90;;;;;;5023825;28;19921;-73
2022/08/28 03:58:03;;;;;;;;;;;18.40;99.90;;;;;;5005215;28;19929;-73
2022/08/28 04:00:35;;;;;;;;;;;18.40;99.90;;;;;;5004675;28;19925;-74
2022/08/28 04:03:07;;;;;;;;;;;18.50;99.90;;;;;;5021963;28;19921;-73
2022/08/28 04:05:40;;;;;;;;;;;18.50;99.90;;;;;;5013687;28;20406;-73
2022/08/28 04:08:14;;;;;;;;;;;18.50;99.90;;;;;;5024389;28;20019;-73
2022/08/28 04:10:46;;;;;;;;;;;18.50;99.90;;;;;;5024055;28;20303;-75
2022/08/28 04:13:19;;;;;;;;;;;18.50;99.90;;;;;;5022966;28;19997;-73
2022/08/28 04:16:02;;;;;;;;;;;18.60;99.90;;;;;;5021657;28;20376;-73
2022/08/28 04:18:34;;;;;;;;;;;18.60;99.90;;;;;;5023515;28;19921;-74
2022/08/28 04:21:08;;;;;;;;;;;18.50;99.90;;;;;;5021703;28;20422;-75
2022/08/28 04:23:42;;;;;;;;;;;18.50;99.90;;;;;;5015399;28;19921;-74
2022/08/28 04:26:18;;;;;;;;;;;18.50;99.90;;;;;;5012779;28;20303;-74
2022/08/28 04:28:50;;;;;;;;;;;18.50;99.90;;;;;;5022349;28;20006;-74
2022/08/28 04:31:21;;;;;;;;;;;18.50;99.90;;;;;;5022470;28;20307;-74
2022/08/28 04:33:54;;;;;;;;;;;18.60;99.90;;;;;;5021386;28;19921;-74
2022/08/28 04:36:26;;;;;;;;;;;18.50;99.90;;;;;;5004673;28;19921;-74
2022/08/28 04:38:58;;;;;;;;;;;18.50;99.90;;;;;;5027408;28;19921;-74
2022/08/28 04:41:29;;;;;;;;;;;18.60;99.90;;;;;;5030463;28;19928;-74
2022/08/28 04:44:01;;;;;;;;;;;18.60;99.90;;;;;;5045993;28;20333;-74
2022/08/28 04:46:33;;;;;;;;;;;18.60;99.90;;;;;;5029354;28;19921;-74
2022/08/28 04:49:05;;;;;;;;;;;18.60;99.90;;;;;;5013270;28;20284;-74
2022/08/28 04:51:36;;;;;;;;;;;18.50;99.90;;;;;;5013226;28;19921;-73
2022/08/28 04:54:09;;;;;;;;;;;18.50;99.90;;;;;;5024242;28;19921;-73
2022/08/28 04:56:42;;;;;;;;;;;18.60;99.90;;;;;;5026456;28;19931;-74
2022/08/28 04:59:13;;;;;;;;;;;18.50;99.90;;;;;;5028048;28;19927;-74
2022/08/28 05:01:45;;;;;;;;;;;18.50;99.90;;;;;;5010651;28;19932;-74
2022/08/28 05:04:18;;;;;;;;;;;18.50;99.90;;;;;;5017998;28;20483;-74
2022/08/28 05:06:50;;;;;;;;;;;18.50;99.90;;;;;;5028533;28;19921;-73
2022/08/28 05:09:21;;;;;;;;;;;18.40;99.90;;;;;;5026342;28;20371;-74
2022/08/28 05:11:53;;;;;;;;;;;18.40;99.90;;;;;;5005271;28;19921;-74
2022/08/28 05:14:25;;;;;;;;;;;18.40;99.90;;;;;;5011150;28;19979;-74
2022/08/28 05:16:57;;;;;;;;;;;18.30;99.90;;;;;;5010889;28;20036;-73
2022/08/28 05:19:28;;;;;;;;;;;18.30;99.90;;;;;;5024439;28;20027;-74
2022/08/28 05:22:00;;;;;;;;;;;18.30;99.90;;;;;;5011659;28;19925;-74
2022/08/28 05:24:31;;;;;;;;;;;18.30;99.90;;;;;;5012727;28;19947;-74
2022/08/28 05:27:03;;;;;;;;;;;18.30;99.90;;;;;;5018379;28;20285;-73
2022/08/28 05:29:35;;;;;;;;;;;18.30;99.90;;;;;;5025045;28;19963;-74
2022/08/28 05:32:08;;;;;;;;;;;18.30;99.90;;;;;;5022879;28;19988;-74
2022/08/28 05:34:39;;;;;;;;;;;18.30;99.90;;;;;;5005323;28;19925;-74
2022/08/28 05:37:11;;;;;;;;;;;18.30;99.90;;;;;;4994123;28;19936;-74
2022/08/28 05:39:43;;;;;;;;;;;18.40;99.90;;;;;;5011363;28;19921;-74
2022/08/28 05:42:15;;;;;;;;;;;18.40;99.90;;;;;;5030334;28;19921;-74
2022/08/28 05:44:46;;;;;;;;;;;18.40;99.90;;;;;;4996097;28;19964;-74
2022/08/28 05:47:18;;;;;;;;;;;18.40;99.90;;;;;;5010946;28;19931;-73
2022/08/28 05:49:50;;;;;;;;;;;18.40;99.90;;;;;;5017714;28;19921;-74
2022/08/28 05:52:21;;;;;;;;;;;18.40;99.90;;;;;;5004813;28;19961;-74
2022/08/28 05:54:53;;;;;;;;;;;18.40;99.90;;;;;;5021090;28;19921;-74
2022/08/28 05:57:25;;;;;;;;;;;18.40;99.90;;;;;;5012615;28;20402;-74
2022/08/28 05:59:56;;;;;;;;;;;18.40;99.90;;;;;;5011271;28;20364;-74
2022/08/28 06:02:30;;;;;;;;;;;18.40;99.90;;;;;;5030546;28;19925;-74
2022/08/28 06:05:01;;;;;;;;;;;18.40;99.90;;;;;;5007004;28;19926;-74
2022/08/28 06:07:33;;;;;;;;;;;18.40;99.90;;;;;;5018306;28;19921;-73
2022/08/28 06:10:06;;;;;;;;;;;18.40;99.90;;;;;;5025821;28;20435;-74
2022/08/28 06:12:37;;;;;;;;;;;18.50;99.90;;;;;;5016034;28;19922;-73
2022/08/28 06:15:09;;;;;;;;;;;18.50;99.90;;;;;;5027400;28;19925;-74
2022/08/28 06:17:41;;;;;;;;;;;18.50;99.90;;;;;;5019971;28;19921;-74
2022/08/28 06:20:12;;;;;;;;;;;18.50;99.90;;;;;;5035721;28;19925;-74
2022/08/28 06:22:44;;;;;;;;;;;18.60;99.90;;;;;;5015752;28;19921;-74
2022/08/28 06:25:16;;;;;;;;;;;18.60;99.90;;;;;;5021632;28;19948;-74
2022/08/28 06:27:47;;;;;;;;;;;18.60;99.90;;;;;;5007123;28;19921;-73
2022/08/28 06:30:19;;;;;;;;;;;18.70;99.90;;;;;;5011088;28;19925;-74
2022/08/28 06:32:51;;;;;;;;;;;18.70;99.90;;;;;;5024594;28;19928;-74
2022/08/28 06:35:22;;;;;;;;;;;18.70;99.90;;;;;;5022603;28;20403;-74
2022/08/28 06:37:49;;;;;;;;;;;18.70;99.90;;;;;;5002405;28;19921;-74
2022/08/28 06:40:20;;;;;;;;;;;18.70;99.90;;;;;;5031638;28;20268;-74
2022/08/28 06:42:52;;;;;;;;;;;18.70;99.90;;;;;;5016224;28;19931;-74
2022/08/28 06:45:23;;;;;;;;;;;18.70;99.90;;;;;;5031829;28;19928;-74
2022/08/28 06:47:55;;;;;;;;;;;18.70;99.90;;;;;;5014980;28;19929;-74
2022/08/28 06:50:27;;;;;;;;;;;18.70;99.90;;;;;;5003504;28;19921;-73
2022/08/28 06:53:00;;;;;;;;;;;18.70;99.90;;;;;;5024376;28;20260;-74
2022/08/28 06:55:32;;;;;;;;;;;18.70;99.90;;;;;;5006769;28;19932;-73
2022/08/28 06:58:04;;;;;;;;;;;18.70;99.90;;;;;;5013981;28;19925;-74
2022/08/28 07:00:36;;;;;;;;;;;18.70;99.90;;;;;;5016892;28;20314;-74
2022/08/28 07:03:08;;;;;;;;;;;18.70;99.90;;;;;;5002168;28;19929;-74
2022/08/28 07:05:40;;;;;;;;;;;18.70;99.90;;;;;;5023186;28;19925;-73
2022/08/28 07:08:11;;;;;;;;;;;18.70;99.90;;;;;;5024559;28;19921;-74
2022/08/28 07:10:38;;;;;;;;;;;18.70;99.90;;;;;;5014275;28;19925;-74
2022/08/28 07:13:10;;;;;;;;;;;18.60;99.90;;;;;;5013423;28;19921;-74
2022/08/28 07:15:41;;;;;;;;;;;18.60;99.90;;;;;;5002935;28;20439;-74
2022/08/28 07:18:13;;;;;;;;;;;18.60;99.90;;;;;;5004739;28;19921;-74
2022/08/28 07:20:53;;;;;;;;;;;18.60;99.90;;;;;;5027962;28;19960;-74
2022/08/28 07:23:26;;;;;;;;;;;18.60;99.90;;;;;;5031700;28;19925;-74
2022/08/28 07:25:58;;;;;;;;;;;18.60;99.90;;;;;;5030424;28;19976;-73
2022/08/28 07:28:30;;;;;;;;;;;18.60;99.90;;;;;;5029011;28;19921;-74
2022/08/28 07:31:03;;;;;;;;;;;18.50;99.90;;;;;;5013688;28;19921;-75
2022/08/28 07:33:36;;;;;;;;;;;18.50;99.90;;;;;;4998766;28;19921;-74
2022/08/28 07:36:08;;;;;;;;;;;18.50;99.90;;;;;;5019352;28;19920;-74
2022/08/28 07:38:40;;;;;;;;;;;18.50;99.90;;;;;;5029362;28;19931;-74
2022/08/28 07:41:13;;;;;;;;;;;18.50;99.90;;;;;;5014075;28;19925;-74
2022/08/28 07:46:36;;;;;;;;;;;18.50;99.90;;;;;;5026975;28;19951;-74
2022/08/28 07:49:08;;;;;;;;;;;18.50;99.90;;;;;;5005238;28;19997;-74
2022/08/28 07:51:40;;;;;;;;;;;18.50;99.90;;;;;;5013504;28;20001;-74
2022/08/28 07:54:11;;;;;;;;;;;18.50;99.90;;;;;;5021606;28;19928;-73
2022/08/28 07:56:43;;;;;;;;;;;18.50;99.90;;;;;;5026411;28;20003;-74
2022/08/28 07:59:16;;;;;;;;;;;18.40;99.90;;;;;;5017102;28;19921;-74
2022/08/28 08:01:49;;;;;;;;;;;18.50;99.90;;;;;;5029918;28;19921;-74
2022/08/28 08:04:18;;;;;;;;;;;18.40;99.90;;;;;;4996932;28;19921;-74
2022/08/28 08:06:51;;;;;;;;;;;18.50;99.90;;;;;;5020938;28;19928;-74
2022/08/28 08:09:23;;;;;;;;;;;18.50;99.90;;;;;;5011635;28;20391;-74
2022/08/28 08:11:55;;;;;;;;;;;18.50;99.90;;;;;;5024387;28;19961;-74
2022/08/28 08:14:27;;;;;;;;;;;18.50;99.90;;;;;;5011319;28;19965;-74
2022/08/28 08:17:00;;;;;;;;;;;18.60;99.90;;;;;;5017912;28;19931;-74
2022/08/28 08:19:32;;;;;;;;;;;18.60;99.90;;;;;;5015578;28;20395;-74
2022/08/28 08:22:03;;;;;;;;;;;18.60;99.90;;;;;;5027248;28;19921;-74
2022/08/28 08:24:35;;;;;;;;;;;18.60;99.90;;;;;;5001668;28;20311;-74
2022/08/28 08:27:09;;;;;;;;;;;18.60;99.90;;;;;;5019475;28;19925;-74
2022/08/28 08:29:40;;;;;;;;;;;18.60;99.90;;;;;;5025255;28;19940;-74
2022/08/28 08:32:08;;;;;;;;;;;18.60;99.90;;;;;;5023798;28;19921;-74
2022/08/28 08:34:41;;;;;;;;;;;18.60;99.90;;;;;;5034792;28;19920;-74
2022/08/28 08:37:13;;;;;;;;;;;18.60;99.90;;;;;;5005630;28;19925;-74
2022/08/28 08:39:44;;;;;;;;;;;18.60;99.90;;;;;;5020770;28;19968;-74
2022/08/28 08:42:21;;;;;;;;;;;18.50;99.90;;;;;;4996811;28;19925;-74
2022/08/28 08:44:55;;;;;;;;;;;18.50;99.90;;;;;;5014584;28;19927;-74
2022/08/28 08:47:29;;;;;;;;;;;18.50;99.90;;;;;;5016430;28;19929;-74
2022/08/28 08:50:05;;;;;;;;;;;18.40;99.90;;;;;;4997854;28;19928;-74
2022/08/28 08:52:43;;;;;;;;;;;18.40;99.90;;;;;;5022035;28;19931;-74
2022/08/28 08:55:22;;;;;;;;;;;18.50;99.90;;;;;;5014005;28;19928;-74
2022/08/28 08:58:05;;;;;;;;;;;18.50;99.90;;;;;;5012579;28;20304;-74
2022/08/28 09:00:52;;;;;;;;;;;18.60;99.90;;;;;;5004452;28;20291;-74
2022/08/28 09:03:26;;;;;;;;;;;18.60;99.90;;;;;;5011315;28;20384;-76
2022/08/28 09:06:00;;;;;;;;;;;18.60;99.90;;;;;;5021353;28;19927;-74
2022/08/28 09:08:41;;;;;;;;;;;18.60;99.90;;;;;;5017569;28;19921;-74
2022/08/28 09:11:23;;;;;;;;;;;18.60;99.90;;;;;;5019948;28;20406;-74
2022/08/28 09:14:07;;;;;;;;;;;18.60;99.90;;;;;;5038919;28;20272;-74
2022/08/28 09:16:42;;;;;;;;;;;18.60;99.90;;;;;;5000277;28;19926;-74
2022/08/28 09:19:16;;;;;;;;;;;18.60;99.90;;;;;;5034991;28;20035;-74
2022/08/28 09:21:44;;;;;;;;;;;18.60;99.90;;;;;;5010946;28;20281;-74
2022/08/28 09:24:19;;;;;;;;;;;18.60;99.90;;;;;;5028156;28;19921;-74
2022/08/28 09:26:52;;;;;;;;;;;18.60;99.90;;;;;;5011475;28;20365;-74
2022/08/28 09:29:26;;;;;;;;;;;18.60;99.90;;;;;;5026522;28;19931;-74
2022/08/28 09:32:13;;;;;;;;;;;18.60;99.90;;;;;;5022166;28;20502;-74
2022/08/28 09:35:11;;;;;;;;;;;18.70;99.90;;;;;;5004293;28;19921;-74
2022/08/28 09:37:43;;;;;;;;;;;18.70;99.90;;;;;;5027920;28;19921;-74
2022/08/28 09:40:18;;;;;;;;;;;18.70;99.90;;;;;;5013393;28;19932;-74
2022/08/28 09:46:05;;;;;;;;;;;18.70;99.90;;;;;;5023953;28;20376;-74
2022/08/28 09:48:44;;;;;;;;;;;18.70;99.90;;;;;;5005529;28;19933;-74
2022/08/28 09:51:19;;;;;;;;;;;18.80;99.90;;;;;;5002209;28;19921;-74
2022/08/28 09:53:50;;;;;;;;;;;18.80;99.90;;;;;;5020538;28;19929;-74
2022/08/28 09:56:25;;;;;;;;;;;18.80;99.90;;;;;;5011163;28;19993;-74
2022/08/28 09:59:13;;;;;;;;;;;18.70;99.90;;;;;;4997302;28;19936;-74
2022/08/28 10:01:45;;;;;;;;;;;18.70;99.90;;;;;;5012847;28;20016;-73
2022/08/28 10:04:28;;;;;;;;;;;18.70;99.90;;;;;;5007489;28;19932;-74
2022/08/28 10:07:02;;;;;;;;;;;18.60;99.90;;;;;;5020341;28;19921;-74
2022/08/28 10:09:43;;;;;;;;;;;18.60;99.90;;;;;;5021337;28;19921;-74
2022/08/28 10:12:14;;;;;;;;;;;18.60;99.90;;;;;;5021201;28;19921;-74
2022/08/28 10:15:01;;;;;;;;;;;18.60;99.90;;;;;;5011514;28;19921;-74
2022/08/28 10:17:36;;;;;;;;;;;18.50;99.90;;;;;;5041504;28;19921;-74
2022/08/28 10:20:20;;;;;;;;;;;18.50;99.90;;;;;;4998784;28;19957;-74
2022/08/28 10:22:51;;;;;;;;;;;18.60;99.90;;;;;;5010306;28;20478;-74
2022/08/28 10:25:35;;;;;;;;;;;18.60;99.90;;;;;;5013476;28;19927;-74
2022/08/28 10:28:25;;;;;;;;;;;18.60;99.90;;;;;;5031535;28;19921;-74
2022/08/28 10:31:07;;;;;;;;;;;18.60;99.90;;;;;;5002727;28;19925;-73
2022/08/28 10:34:05;;;;;;;;;;;18.60;99.90;;;;;;5019442;28;19925;-74
2022/08/28 10:36:37;;;;;;;;;;;18.60;99.90;;;;;;4995704;28;19925;-74
2022/08/28 10:39:21;;;;;;;;;;;18.60;99.90;;;;;;5041989;28;20050;-74
2022/08/28 10:41:54;;;;;;;;;;;18.60;99.90;;;;;;5029947;28;20071;-74
2022/08/28 10:44:41;;;;;;;;;;;18.60;99.90;;;;;;5020961;28;20871;-74
2022/08/28 10:47:14;;;;;;;;;;;18.60;99.90;;;;;;5013187;28;19992;-74
2022/08/28 10:49:47;;;;;;;;;;;18.70;99.90;;;;;;5037437;28;20311;-74
2022/08/28 10:52:19;;;;;;;;;;;18.70;99.90;;;;;;5022140;28;19925;-74
2022/08/28 10:54:51;;;;;;;;;;;18.70;99.90;;;;;;5027474;28;19926;-74
2022/08/28 10:57:33;;;;;;;;;;;18.70;99.90;;;;;;5029380;28;19927;-73
2022/08/28 11:00:11;;;;;;;;;;;18.80;99.90;;;;;;5031827;28;19963;-73
2022/08/28 11:02:44;;;;;;;;;;;18.80;99.90;;;;;;5013461;28;19968;-74
2022/08/28 11:05:23;;;;;;;;;;;18.80;99.90;;;;;;5016624;28;19945;-74
2022/08/28 11:08:02;;;;;;;;;;;18.90;99.90;;;;;;5011930;28;19921;-74
2022/08/28 11:10:34;;;;;;;;;;;18.90;99.90;;;;;;5026842;28;19921;-74
2022/08/28 11:13:08;;;;;;;;;;;18.90;99.90;;;;;;5012074;28;19925;-74
2022/08/28 11:15:49;;;;;;;;;;;18.90;99.90;;;;;;5013833;28;19976;-74
2022/08/28 11:18:36;;;;;;;;;;;18.90;99.90;;;;;;5012810;28;20422;-74
2022/08/28 11:21:14;;;;;;;;;;;18.90;99.90;;;;;;5016664;28;20384;-74
2022/08/28 11:23:49;;;;;;;;;;;18.80;99.90;;;;;;5015602;28;19924;-74
2022/08/28 11:26:30;;;;;;;;;;;18.90;99.90;;;;;;5013581;28;20169;-74
2022/08/28 11:29:02;;;;;;;;;;;18.90;99.90;;;;;;5005975;28;19927;-74
2022/08/28 11:31:36;;;;;;;;;;;18.90;99.90;;;;;;5026301;28;20015;-74
2022/08/28 11:34:28;;;;;;;;;;;19.00;99.90;;;;;;5038758;28;20296;-74
2022/08/28 11:37:00;;;;;;;;;;;19.10;99.90;;;;;;5003778;28;19921;-74
2022/08/28 11:39:32;;;;;;;;;;;19.10;99.90;;;;;;5015911;28;20033;-74
2022/08/28 11:42:10;;;;;;;;;;;19.20;99.90;;;;;;5032959;28;19925;-74
2022/08/28 11:44:42;;;;;;;;;;;19.30;99.90;;;;;;5019134;28;19943;-74
2022/08/28 11:47:33;;;;;;;;;;;19.40;99.90;;;;;;5003790;28;19928;-74
2022/08/28 11:50:17;;;;;;;;;;;19.50;99.90;;;;;;5039526;28;19928;-74
2022/08/28 11:53:07;;;;;;;;;;;19.50;99.90;;;;;;5011589;28;19921;-74
2022/08/28 11:55:58;;;;;;;;;;;19.70;99.90;;;;;;5022627;28;19925;-73
2022/08/28 11:58:34;;;;;;;;;;;19.70;99.90;;;;;;5016957;28;19925;-74
2022/08/28 12:01:07;;;;;;;;;;;19.80;99.90;;;;;;4998381;28;19926;-74
2022/08/28 12:03:56;;;;;;;;;;;20.00;99.90;;;;;;5012579;28;19940;-74
2022/08/28 12:06:43;;;;;;;;;;;20.10;99.90;;;;;;5015193;28;19928;-74
2022/08/28 12:09:24;;;;;;;;;;;20.30;99.90;;;;;;5041191;28;19921;-74
2022/08/28 12:12:04;;;;;;;;;;;20.30;99.90;;;;;;5005876;28;19925;-74
2022/08/28 12:14:38;;;;;;;;;;;20.40;99.90;;;;;;5027721;28;20012;-74
2022/08/28 12:17:13;;;;;;;;;;;20.40;99.90;;;;;;5019023;28;20298;-74
2022/08/28 12:19:52;;;;;;;;;;;20.60;99.90;;;;;;5015638;28;20012;-74
2022/08/28 12:22:25;;;;;;;;;;;20.60;99.90;;;;;;5012785;28;19975;-74
2022/08/28 12:24:59;;;;;;;;;;;20.80;99.90;;;;;;5022684;28;19948;-74
2022/08/28 12:27:35;;;;;;;;;;;20.80;99.90;;;;;;5000017;28;19931;-74
2022/08/28 12:30:07;;;;;;;;;;;20.80;99.90;;;;;;5013922;28;20394;-74
2022/08/28 12:32:49;;;;;;;;;;;21.00;99.90;;;;;;5022638;28;19927;-74
2022/08/28 12:35:28;;;;;;;;;;;21.00;99.90;;;;;;5019241;28;19947;-74
2022/08/28 12:38:00;;;;;;;;;;;21.00;99.90;;;;;;5029665;28;20386;-74
2022/08/28 12:40:35;;;;;;;;;;;21.00;99.90;;;;;;5042104;28;19921;-74
2022/08/28 12:43:08;;;;;;;;;;;21.00;99.90;;;;;;5031635;28;19925;-74
2022/08/28 12:45:55;;;;;;;;;;;21.00;99.90;;;;;;5014266;28;19964;-74
2022/08/28 12:48:30;;;;;;;;;;;21.10;99.90;;;;;;5016873;28;19921;-74
2022/08/28 12:51:06;;;;;;;;;;;21.20;99.90;;;;;;5004260;28;19932;-74
2022/08/28 12:53:43;;;;;;;;;;;21.30;99.90;;;;;;5023084;28;19920;-74
2022/08/28 12:56:16;;;;;;;;;;;21.40;99.90;;;;;;5006372;28;20410;-74
2022/08/28 12:58:49;;;;;;;;;;;21.60;99.90;;;;;;5005758;28;19933;-74
2022/08/28 13:01:29;;;;;;;;;;;21.80;99.90;;;;;;5027853;28;19921;-74
2022/08/28 13:04:03;;;;;;;;;;;22.10;99.90;;;;;;5030347;28;19926;-74
2022/08/28 13:06:36;;;;;;;;;;;22.40;99.90;;;;;;5024911;28;19922;-74
2022/08/28 13:09:14;;;;;;;;;;;22.50;99.90;;;;;;5025478;28;19929;-74
2022/08/28 13:11:47;;;;;;;;;;;22.50;99.90;;;;;;5021167;28;20287;-74
2022/08/28 13:14:34;;;;;;;;;;;22.50;99.90;;;;;;5018510;28;19944;-74
2022/08/28 13:17:06;;;;;;;;;;;22.50;99.90;;;;;;5015408;28;20295;-74
2022/08/28 13:19:38;;;;;;;;;;;22.60;99.90;;;;;;5043290;28;19925;-74
2022/08/28 13:22:28;;;;;;;;;;;22.50;99.90;;;;;;5031071;28;20293;-74
2022/08/28 13:25:01;;;;;;;;;;;22.60;99.90;;;;;;5028891;28;20310;-74
2022/08/28 13:27:33;;;;;;;;;;;22.80;99.90;;;;;;5017117;28;19925;-74
2022/08/28 13:30:07;;;;;;;;;;;23.00;99.90;;;;;;5019352;28;20016;-74
2022/08/28 13:32:38;;;;;;;;;;;23.20;99.90;;;;;;5012885;28;20510;-74
2022/08/28 13:35:27;;;;;;;;;;;23.30;99.90;;;;;;5021931;28;20528;-74
2022/08/28 13:38:04;;;;;;;;;;;23.30;99.90;;;;;;5011151;28;19929;-74
2022/08/28 13:40:42;;;;;;;;;;;23.30;99.90;;;;;;5010147;28;20419;-74
2022/08/28 13:43:15;;;;;;;;;;;23.40;99.90;;;;;;5012829;28;19921;-74
2022/08/28 13:45:47;;;;;;;;;;;23.50;99.90;;;;;;5011467;28;19928;-74
2022/08/28 13:48:21;;;;;;;;;;;23.70;99.90;;;;;;5026779;28;20579;-74
2022/08/28 13:50:57;;;;;;;;;;;23.70;99.90;;;;;;5003277;28;19922;-74
2022/08/28 13:53:29;;;;;;;;;;;24.00;99.90;;;;;;5001142;28;20442;-74
2022/08/28 13:56:01;;;;;;;;;;;24.10;99.90;;;;;;5018023;28;19933;-74
2022/08/28 13:58:33;;;;;;;;;;;24.10;99.90;;;;;;5015052;28;20273;-74
2022/08/28 14:01:05;;;;;;;;;;;24.10;99.90;;;;;;4996330;28;19921;-74
2022/08/28 14:03:37;;;;;;;;;;;24.30;99.90;;;;;;4996203;28;20464;-74
2022/08/28 14:06:13;;;;;;;;;;;24.50;99.90;;;;;;5026910;28;20405;-74
2022/08/28 14:08:45;;;;;;;;;;;24.80;99.90;;;;;;5012572;28;19929;-74
2022/08/28 14:11:16;;;;;;;;;;;25.00;99.90;;;;;;5019743;28;20287;-74
2022/08/28 14:13:49;;;;;;;;;;;25.20;99.90;;;;;;5000998;28;19921;-74
2022/08/28 14:16:20;;;;;;;;;;;25.20;99.90;;;;;;5009776;28;20037;-74
2022/08/28 14:18:52;;;;;;;;;;;25.30;99.90;;;;;;5016217;28;19976;-74
2022/08/28 14:21:24;;;;;;;;;;;25.50;99.90;;;;;;5012216;28;20292;-74
2022/08/28 14:23:56;;;;;;;;;;;25.60;99.90;;;;;;5009918;28;20423;-74
2022/08/28 14:26:29;;;;;;;;;;;25.70;99.90;;;;;;5021040;28;19928;-74
2022/08/28 14:29:01;;;;;;;;;;;26.00;99.90;;;;;;5020949;28;19922;-74
2022/08/28 14:31:39;;;;;;;;;;;26.00;99.90;;;;;;5015169;28;20379;-74
2022/08/28 14:34:12;;;;;;;;;;;25.80;99.90;;;;;;5026133;28;20418;-74
2022/08/28 14:36:44;;;;;;;;;;;25.80;99.90;;;;;;5029631;28;19929;-74
2022/08/28 14:39:16;;;;;;;;;;;26.00;99.90;;;;;;5046582;28;19925;-74
2022/08/28 14:41:50;;;;;;;;;;;26.10;99.90;;;;;;5013795;28;19927;-74
2022/08/28 14:44:23;;;;;;;;;;;26.30;99.90;;;;;;5024134;28;19936;-74
2022/08/28 14:46:54;;;;;;;;;;;26.50;99.90;;;;;;5019686;28;19921;-74
2022/08/28 14:49:27;;;;;;;;;;;26.90;99.90;;;;;;5025198;28;19921;-74
2022/08/28 14:51:58;;;;;;;;;;;27.00;99.90;;;;;;5024558;28;19928;-74
2022/08/28 14:54:30;;;;;;;;;;;27.30;99.90;;;;;;5022001;28;20099;-74
2022/08/28 14:57:02;;;;;;;;;;;27.50;99.90;;;;;;5019221;28;20021;-74
2022/08/28 14:59:34;;;;;;;;;;;27.30;99.90;;;;;;5013060;28;19921;-74
2022/08/28 15:02:06;;;;;;;;;;;27.30;99.90;;;;;;5016704;28;19936;-74
2022/08/28 15:04:38;;;;;;;;;;;27.20;99.90;;;;;;5013407;28;19927;-74
2022/08/28 15:07:11;;;;;;;;;;;27.20;99.90;;;;;;5037818;28;19921;-73